Main page
METAR-TAF:

METAR-TAF

Airports :

Langkawi International Airport

Langkawi, Malaysia

latitude: 06-20N, longitude: 099-44E, elevation: 8 m

Current weather observation

The report was made 27 minutes ago, at 05:00 UTC
Wind 10 kt from the East/Northeast, varying between North/Northwest and Southeast
Temperature 31°C
Humidity 66%
Pressure 1011 hPa
Visibility 10 km or more
Few clouds at a height of 2200 ft

METAR: WMKL 060500Z 06010KT 340V140 9999 FEW022 31/24 Q1011

Time: 13:27 (05:27 UTC)

Forecast

The report was made 6 hours and 27 minutes ago, at 23:00 UTC
Forecast valid from 06 at 00 UTC to 07 at 00 UTC
Wind 12 kt from the Northeast
Visibility 10 km or more
Few clouds at a height of 2200 ft
Becoming
from 06 at 10 UTC to 06 at 12 UTC
Wind 7 kt from the East/Northeast
Few clouds at a height of 2600 ft

TAF: WMKL 052300Z 0600/0700 05012KT 9999 FEW022 BECMG 0610/0612 06007KT FEW026

Weather observations and forecasts of more than 4000 airports (METAR and TAF reports).

The available stations are represented by yellow and red dots on the map.

Hover mouse over dot to see the name of the station.

Then click to see weather observations and forecasts.

To change the map : click on the green buttons with a black cross to zoom in, on the green button with a dash to zoom out, or on the green arrows for adjacent maps.


METAR-TAF: